Share

Chisholm-hibbing, MN

RAWS HIBBING MN US (MHIBM5) Elev 1350 ft | 47.39 °N, 92.83 °W | Change Station

Current weather conditions updated 56 minutes ago

Light Snow
Light Snow
25 °F
Feels Like 14 °F
N
12
Wind Variable Wind from NE
Gusts 18.0 mph
Sunrise 6:19 AM
Sunset 8:03 PM
Moon Waning Gibbous

Today is forecast to be nearly the same temperature as yesterday.

Pressure 30.18 in
Visibility 4.0 miles
Clouds Scattered Clouds 1800 ft
Mostly Cloudy 2200 ft
Overcast 2900 ft
Windchill 14 °F
Dew Point 19 °F
Humidity 79%
Rainfall 0.00 in
Snow Depth Not available.
UV 0 out of 16
Pollen 1.00 out of 12
Air Quality Not available.
Flu Activity Sporadic
METAR KEVM 170454Z AUTO 05008G15KT 4SM -SN SCT018 BKN022 OVC029 M03/M06 A3018 RMK AO2

More Conditions Fewer Conditions

Pressure 30.18 in
Visibility 4.0 miles
Clouds Scattered Clouds 1800 ft
Mostly Cloudy 2200 ft
Overcast 2900 ft
Windchill 14 °F
Dew Point 19 °F
Humidity 79%
Rainfall 0.00 in
Snow Depth Not available.
UV 0 out of 16
Pollen 1.00 out of 12
Air Quality Not available.
Flu Activity Sporadic
METAR KEVM 170454Z AUTO 05008G15KT 4SM -SN SCT018 BKN022 OVC029 M03/M06 A3018 RMK AO2

More Conditions Fewer Conditions

10-Day Forecast

Almanac

Astronomy

Apr. 17, 2014 Rise Set
Actual Time 6:19 AM CDT 8:03 PM CDT
Civil Twilight 5:46 AM CDT 8:36 PM CDT
Nautical Twilight 5:07 AM CDT 9:15 PM CDT
Astronomical Twilight 4:23 AM CDT 9:59 PM CDT
Moon 10:58 PM CDT 7:44 AM CDT
Length of Visible Light 14h 49m
Length of Day
13h 44m
Tomorrow will be 3m 15s longer.
Waning Gibbous, 96% of the Moon is Illuminated
Today
Waning Gibbous
Apr 22
Last Quarter
Apr 29
New
May 6
First Quarter
May 14
Full

Today's Extremes

State Highs State Lows

Community

  • symphony in blue....
    symphony in blue....
  • Dawn Surprise
    Dawn Surprise
  • Yucca delight
    Yucca delight
  • Sunset inside of the Ocean
    Sunset inside of the Ocean
  • Lunar eclipse 15 April 2014
    Lunar eclipse 15 April 2014

WunderPhotos

Upload Photos

1,701,858 photos uploaded!

WunderBlogs® & News

Nearby

Snow Depth

Station Depth Elevation
No new snow has been reported.

Coastal Water Temperatures

Place Temperature
No Stations Reporting

Earthquake Activity

City Distance Mag. Time & Date
No recent earthquake activity has been reported nearby.
Minimum magnitude displayed is 2.5.

Nearby Weather Stations

Station Location Temp. Windchill Dew Point Humidity Wind Precip. Elev Updated Type
RAWS HIBBING MN, Hibbing, MN 25 °F 14 °F 19 °F 79% NE  at  12 mph 0.00 in / hr 1350 ft 11:07 PM CDT MADIS

Show More Stations Show Fewer Stations

What do you think?

We're not finished. Please let us know what you like, what you don't like, and what you are still missing.